CW3847 La Orotava ES current weather conditions

sailwx.info

Wind from 171 at 2 knots gusting 2

Air temperature 13.3° C
Dewpoint 9.4° C

Last reported at 2015-Mar-03 02:46 UTC.
Time now 2015-Mar-03 03:16 UTC

Location: N 28°23' W 016°31'.
View on Google Maps.

See reports from other nearby stations

  
Tides and Currents Weather Stations Pressure Air Temp Water Temp Dewpoint Dewpoint Depression Visibility Wind Speed Wind Dir Waves Ship Positions
date/time (UTC)wind fromknots sea level pressurealtimeterstation pressurevisibilityair tempwater tempwave heightnotes
2015-Mar-03 02:46 171 2 gusting 2 13.3
2015-Mar-03 02:26 217 0 gusting 1 13.3
2015-Mar-03 02:06 176 0 gusting 1 13.3
2015-Mar-03 01:56 171 0 gusting 1 13.3
2015-Mar-03 01:46 202 0 gusting 1 13.3
2015-Mar-03 01:36 188 1 gusting 2 13.3
2015-Mar-03 01:26 150 0 gusting 1 13.9
2015-Mar-03 01:16 186 0 gusting 0 13.9
2015-Mar-03 00:56 193 2 gusting 2 13.3
2015-Mar-03 00:46 158 2 gusting 2 13.9
2015-Mar-03 00:37 177 1 gusting 3 13.9
2015-Mar-03 00:16 187 0 gusting 0 13.9
2015-Mar-03 00:07 198 1 gusting 2 13.9
2015-Mar-02 23:56 169 0 gusting 1 13.9
2015-Mar-02 23:36 175 0 gusting 0 13.9
2015-Mar-02 23:26 200 1 gusting 1 13.9
2015-Mar-02 23:16 219 2 gusting 2 13.9
2015-Mar-02 23:06 182 1 gusting 2 13.9
2015-Mar-02 22:56 213 0 gusting 1 13.9
2015-Mar-02 22:26 173 2 gusting 2 13.9
2015-Mar-02 22:06 170 1 gusting 1 13.9
2015-Mar-02 21:46 180 0 gusting 2 14.4
2015-Mar-02 21:16 259 14.4
2015-Mar-02 21:06 259 2 gusting 2 13.9
2015-Mar-02 20:56 336 1 gusting 2 14.4
2015-Mar-02 20:36 336 1 gusting 1 13.9
2015-Mar-02 20:26 336 1 gusting 1 13.9
2015-Mar-02 20:06 336 1 gusting 1 14.4
2015-Mar-02 19:56 360 1 gusting 2 14.4
2015-Mar-02 19:16 347 1 gusting 2 14.4
2015-Mar-02 19:06 333 0 gusting 1 14.4
2015-Mar-02 18:56 342 1 gusting 2 14.4
2015-Mar-02 18:46 350 3 gusting 3 14.4
2015-Mar-02 18:26 342 3 gusting 3 14.4
2015-Mar-02 18:16 350 2 gusting 3 14.4
2015-Mar-02 18:06 015 2 gusting 2 15.0
2015-Mar-02 17:56 311 2 gusting 2 15.0
2015-Mar-02 17:36 325 2 gusting 2 15.0
2015-Mar-02 17:16 049 0 gusting 2 15.0
2015-Mar-02 17:06 310 0 gusting 0 15.0
2015-Mar-02 16:56 023 2 gusting 2 15.0
2015-Mar-02 16:36 343 3 gusting 4 15.0
2015-Mar-02 16:06 030 4 gusting 6 15.0
2015-Mar-02 15:56 338 2 gusting 3 15.6
2015-Mar-02 15:46 016 1 gusting 2 15.6
2015-Mar-02 15:36 360 4 gusting 6 15.6
2015-Mar-02 15:16 005 3 gusting 5 15.6
2015-Mar-02 15:06 333 2 gusting 2 15.6
2015-Mar-02 14:46 355 6 gusting 7 16.1
2015-Mar-02 14:36 313 2 gusting 2 16.1
2015-Mar-02 14:16 050 2 gusting 3 16.1
2015-Mar-02 14:06 345 6 gusting 7 16.7
2015-Mar-02 13:56 360 2 gusting 2 16.7
2015-Mar-02 13:36 300 2 gusting 6 16.7
2015-Mar-02 13:06 302 1 gusting 2 16.7
2015-Mar-02 12:56 216 1 gusting 2 16.7
2015-Mar-02 12:46 306 1 gusting 2 16.7
2015-Mar-02 12:36 309 2 gusting 3 16.7
2015-Mar-02 12:26 231 3 gusting 5 16.7
2015-Mar-02 12:16 261 2 gusting 4 16.7
2015-Mar-02 12:06 265 4 gusting 7 16.7
2015-Mar-02 11:46 263 5 gusting 5 16.1
2015-Mar-02 11:36 297 1 gusting 2 15.6
2015-Mar-02 11:26 302 5 gusting 5 16.1
2015-Mar-02 10:46 259 1 gusting 6 15.6
2015-Mar-02 10:36 227 2 gusting 2 15.6
2015-Mar-02 10:26 313 3 gusting 3 15.6
2015-Mar-02 10:06 263 1 gusting 3 15.6
2015-Mar-02 09:56 192 2 gusting 2 15.6
2015-Mar-02 09:46 236 4 gusting 4 14.4
2015-Mar-02 09:36 287 0 gusting 1 13.9
2015-Mar-02 09:26 340 0 gusting 0 13.9
2015-Mar-02 09:16 055 13.9
2015-Mar-02 08:46 204 0 gusting 0 12.8
2015-Mar-02 08:36 209 2 gusting 2 12.2
2015-Mar-02 08:16 157 1 gusting 2 11.7
2015-Mar-01 23:06 125 1 gusting 3 12.8
2015-Mar-01 22:56 126 1 gusting 1 12.8
2015-Mar-01 22:46 069 1 gusting 2 12.8
2015-Mar-01 22:36 128 2 gusting 5 12.8
2015-Mar-01 22:26 079 12.8
2015-Mar-01 22:16 076 1 gusting 1 12.8
2015-Mar-01 21:46 355 0 gusting 0 13.3
2015-Mar-01 21:36 020 0 gusting 1 13.3
2015-Mar-01 21:16 030 1 gusting 2 13.3
2015-Mar-01 21:06 057 2 gusting 2 13.9
2015-Mar-01 20:56 145 13.9
2015-Mar-01 20:36 159 2 gusting 3 13.3
2015-Mar-01 20:16 021 13.9
2015-Mar-01 19:46 044 2 gusting 3 13.3
2015-Mar-01 19:36 031 7 gusting 8 13.3
2015-Mar-01 19:26 033 3 gusting 6 13.3
2015-Mar-01 19:16 038 2 gusting 3 13.9
2015-Mar-01 19:06 084 1 gusting 1 13.9
2015-Mar-01 18:46 034 1 gusting 2 13.9
2015-Mar-01 18:36 032 0 gusting 2 13.9
2015-Mar-01 18:16 009 2 gusting 3 13.9
2015-Mar-01 17:56 346 2 gusting 4 14.4
2015-Mar-01 17:46 026 2 gusting 3 14.4
2015-Mar-01 17:36 020 2 gusting 3 14.4
2015-Mar-01 17:16 355 1 gusting 3 14.4
2015-Mar-01 17:06 360 1 gusting 2 15.0
2015-Mar-01 16:46 017 3 gusting 4 15.0
2015-Mar-01 16:06 014 6 gusting 6 15.0
2015-Mar-01 15:56 013 6 gusting 6 15.0
2015-Mar-01 15:16 046 2 gusting 4 15.0
2015-Mar-01 15:06 052 2 gusting 6 15.6
2015-Mar-01 14:56 071 3 gusting 6 15.6
2015-Mar-01 14:46 043 5 gusting 8 15.6
2015-Mar-01 14:16 032 2 gusting 6 15.6
2015-Mar-01 14:06 349 4 gusting 7 15.6
2015-Mar-01 13:56 062 2 gusting 4 15.0
2015-Mar-01 13:46 355 1 gusting 2 15.6
2015-Mar-01 13:36 017 2 gusting 7 15.6
2015-Mar-01 13:16 019 5 gusting 6 15.6
2015-Mar-01 13:06 341 4 gusting 6 15.6
2015-Mar-01 12:56 022 0 gusting 2 15.0
2015-Mar-01 12:46 039 3 gusting 3 15.6
2015-Mar-01 12:26 015 6 gusting 6 15.0
2015-Mar-01 12:16 024 4 gusting 7 15.0
2015-Mar-01 11:46 350 2 gusting 4 15.0
2015-Mar-01 11:36 037 4 gusting 6 15.0
2015-Mar-01 11:26 021 3 gusting 3 15.0
2015-Mar-01 11:16 045 2 gusting 2 15.0
2015-Mar-01 10:56 010 3 gusting 6 15.0
2015-Mar-01 10:46 048 1 gusting 2 15.0
2015-Mar-01 10:26 026 4 gusting 6 15.0
2015-Mar-01 09:56 041 2 gusting 3 14.4
2015-Mar-01 09:46 355 2 gusting 2 15.0
2015-Mar-01 09:16 068 14.4
2015-Mar-01 09:06 220 0 gusting 0 14.4
2015-Mar-01 08:26 192 12.8
2015-Mar-01 07:36 074 12.8
2015-Mar-01 07:16 100 1 gusting 2 12.8
2015-Mar-01 06:46 355 2 gusting 2 12.8
2015-Mar-01 06:36 200 2 gusting 2 12.8
2015-Mar-01 06:16 191 0 gusting 1 12.8
2015-Mar-01 06:06 233 12.8
2015-Mar-01 05:46 175 1 gusting 1 12.8
2015-Mar-01 05:16 178 1 gusting 2 12.2
2015-Mar-01 04:56 207 1 gusting 1 12.2
2015-Mar-01 04:36 218 4 gusting 4 12.2
2015-Mar-01 04:16 219 2 gusting 2 12.2
2015-Mar-01 04:06 211 0 gusting 0 12.2
2015-Mar-01 03:06 173 2 gusting 2 11.7